createdAt,value
2018-03-31T00:01:52.765Z,10.60
2018-03-31T00:04:18.804Z,9.87
2018-03-31T00:06:44.800Z,9.67
2018-03-31T00:09:10.870Z,10.20
2018-03-31T00:11:36.884Z,11.03
2018-03-31T00:14:02.942Z,13.20
2018-03-31T00:16:28.961Z,10.53
2018-03-31T00:18:55.068Z,13.77
2018-03-31T00:21:21.136Z,10.90
2018-03-31T00:23:57.649Z,14.37
2018-03-31T00:26:23.656Z,11.67
2018-03-31T00:28:52.054Z,14.00
2018-03-31T00:31:18.088Z,10.13
2018-03-31T00:33:44.153Z,11.67
2018-03-31T00:36:12.039Z,13.70
2018-03-31T00:38:38.037Z,13.20
2018-03-31T00:41:05.029Z,12.70
2018-03-31T00:43:31.039Z,14.90
2018-03-31T00:45:57.100Z,11.63
2018-03-31T00:48:23.124Z,16.00
2018-03-31T00:50:51.545Z,15.57
2018-03-31T00:53:17.546Z,15.70
2018-03-31T00:55:43.612Z,15.97
2018-03-31T00:58:09.618Z,13.90
2018-03-31T01:00:35.684Z,13.50
2018-03-31T01:03:01.688Z,15.20
2018-03-31T01:05:29.177Z,12.50
2018-03-31T01:07:59.912Z,14.37
2018-03-31T01:10:27.107Z,12.63
2018-03-31T01:12:53.118Z,16.13
2018-03-31T01:15:19.910Z,15.17
2018-03-31T01:17:45.920Z,16.33
2018-03-31T01:20:11.978Z,13.20
2018-03-31T01:22:37.998Z,12.00
2018-03-31T01:25:03.981Z,15.27
2018-03-31T01:27:29.973Z,14.50
2018-03-31T01:29:56.708Z,14.27
2018-03-31T01:32:23.501Z,13.20
2018-03-31T01:34:49.604Z,14.33
2018-03-31T01:37:15.669Z,15.27
2018-03-31T01:39:41.682Z,13.70
2018-03-31T01:42:09.005Z,15.77
2018-03-31T01:44:35.092Z,12.70
2018-03-31T01:47:02.881Z,14.90
2018-03-31T01:49:29.617Z,13.83
2018-03-31T01:51:56.398Z,15.67
2018-03-31T01:54:22.408Z,15.80
2018-03-31T01:56:48.476Z,12.90
2018-03-31T01:59:14.505Z,14.07
2018-03-31T02:01:41.760Z,12.43
2018-03-31T02:04:07.799Z,16.03
2018-03-31T02:06:34.651Z,15.97
2018-03-31T02:09:01.404Z,12.70
2018-03-31T02:11:27.478Z,16.67
2018-03-31T02:13:53.483Z,13.60
2018-03-31T02:16:19.564Z,17.43
2018-03-31T02:18:46.378Z,15.10
2018-03-31T02:21:12.413Z,14.20
2018-03-31T02:23:39.195Z,16.50
2018-03-31T02:26:05.240Z,19.17
2018-03-31T02:28:31.265Z,15.90
2018-03-31T02:30:58.319Z,17.77
2018-03-31T02:33:28.117Z,17.47
2018-03-31T02:35:54.897Z,15.50
2018-03-31T02:38:20.948Z,18.07
2018-03-31T02:40:46.989Z,16.13
2018-03-31T02:43:13.033Z,15.00
2018-03-31T02:45:39.038Z,17.37
2018-03-31T02:48:05.108Z,17.40
2018-03-31T02:50:34.192Z,18.10
2018-03-31T02:53:00.258Z,18.47
2018-03-31T02:55:26.972Z,17.03
2018-03-31T02:57:53.072Z,20.50
2018-03-31T03:00:19.062Z,17.20
2018-03-31T03:02:45.317Z,17.17
2018-03-31T03:05:11.355Z,18.97
2018-03-31T03:07:37.385Z,17.57
2018-03-31T03:10:04.961Z,17.93
2018-03-31T03:12:30.993Z,17.73
2018-03-31T03:14:59.049Z,19.57
2018-03-31T03:17:26.844Z,20.50
2018-03-31T03:19:53.626Z,17.07
2018-03-31T03:22:21.641Z,21.13
2018-03-31T03:24:48.521Z,19.47
2018-03-31T03:27:14.502Z,22.17
2018-03-31T03:29:40.536Z,18.70
2018-03-31T03:32:07.273Z,18.17
2018-03-31T03:34:34.055Z,20.20
2018-03-31T03:37:00.065Z,18.90
2018-03-31T03:39:26.135Z,16.87
2018-03-31T03:41:55.634Z,18.70
2018-03-31T03:44:22.940Z,19.17
2018-03-31T03:46:49.250Z,18.67
2018-03-31T03:49:17.128Z,17.47
2018-03-31T03:51:43.882Z,19.33
2018-03-31T03:54:11.655Z,19.03
2018-03-31T03:56:37.690Z,20.40
2018-03-31T03:59:04.772Z,22.43
2018-03-31T04:01:30.784Z,16.50
2018-03-31T04:03:56.891Z,17.90
2018-03-31T04:50:03.920Z,21.57
2018-03-31T04:52:30.677Z,20.43
2018-03-31T04:54:56.661Z,20.83
2018-03-31T04:57:22.653Z,23.13
2018-03-31T04:59:48.617Z,21.03
2018-03-31T05:02:15.395Z,21.10
2018-03-31T05:04:41.388Z,20.83
2018-03-31T05:07:08.153Z,21.80
2018-03-31T05:09:34.129Z,22.77
2018-03-31T05:12:00.167Z,24.57
2018-03-31T05:14:26.905Z,21.87
2018-03-31T05:16:53.657Z,19.37
2018-03-31T05:19:20.393Z,24.77
2018-03-31T05:21:47.193Z,21.87
2018-03-31T05:24:13.168Z,20.70
2018-03-31T05:26:41.284Z,24.17
2018-03-31T05:29:07.287Z,22.37
2018-03-31T05:31:34.608Z,17.60
2018-03-31T05:34:01.331Z,21.73
2018-03-31T05:36:27.348Z,21.27
2018-03-31T05:38:53.345Z,22.23
2018-03-31T05:41:19.317Z,18.87
2018-03-31T05:43:46.066Z,22.00
2018-03-31T05:46:12.045Z,24.43
2018-03-31T05:48:38.060Z,21.10
2018-03-31T05:51:04.029Z,23.10
2018-03-31T05:53:30.757Z,19.60
2018-03-31T05:55:56.728Z,22.40
2018-03-31T05:58:22.713Z,23.93
2018-03-31T06:00:49.428Z,21.27
2018-03-31T06:03:17.243Z,21.50
2018-03-31T06:05:43.217Z,22.37
2018-03-31T06:08:09.209Z,22.00
2018-03-31T06:10:35.181Z,23.10
2018-03-31T06:13:01.920Z,21.00
2018-03-31T06:15:28.648Z,23.63
2018-03-31T06:17:56.116Z,22.30
2018-03-31T06:20:22.829Z,23.30
2018-03-31T06:22:49.581Z,25.53
2018-03-31T06:25:15.554Z,23.13
2018-03-31T06:27:41.525Z,23.57
2018-03-31T06:30:07.514Z,22.33
2018-03-31T06:32:33.473Z,23.93
2018-03-31T06:35:02.454Z,21.83
2018-03-31T06:37:28.489Z,22.87
2018-03-31T06:39:54.426Z,20.57
2018-03-31T06:42:22.633Z,24.73
2018-03-31T06:44:50.486Z,22.07
2018-03-31T06:47:16.457Z,23.63
2018-03-31T06:49:43.636Z,25.70
2018-03-31T06:52:10.350Z,26.00
2018-03-31T06:54:36.341Z,23.10
2018-03-31T06:57:02.354Z,23.60
2018-03-31T06:59:28.344Z,22.40
2018-03-31T07:01:55.058Z,21.63
2018-03-31T07:04:21.057Z,21.83
2018-03-31T07:06:47.029Z,23.30
2018-03-31T07:09:13.769Z,25.13
2018-03-31T07:11:40.488Z,28.13
2018-03-31T07:14:06.467Z,24.57
2018-03-31T07:16:32.461Z,21.53
2018-03-31T07:18:59.181Z,22.63
2018-03-31T07:21:25.172Z,25.23
2018-03-31T07:23:51.142Z,25.83
2018-03-31T07:26:18.444Z,17.60
2018-03-31T07:28:44.404Z,29.83
2018-03-31T07:31:10.396Z,22.07
2018-03-31T07:33:36.359Z,23.00
2018-03-31T07:36:05.996Z,23.23
2018-03-31T07:38:31.969Z,25.63
2018-03-31T07:40:57.937Z,25.03
2018-03-31T07:43:23.924Z,22.80
2018-03-31T07:45:49.929Z,22.73
2018-03-31T07:48:15.895Z,23.67
2018-03-31T07:50:42.623Z,22.33
2018-03-31T07:53:09.346Z,21.37
2018-03-31T07:55:35.340Z,21.30
2018-03-31T07:58:01.304Z,24.67
2018-03-31T08:00:28.038Z,23.20
2018-03-31T08:02:54.750Z,24.30
2018-03-31T08:05:20.808Z,26.70
2018-03-31T08:07:47.515Z,21.30
2018-03-31T08:10:13.488Z,26.53
2018-03-31T08:12:40.954Z,22.33
2018-03-31T08:15:06.969Z,22.30
2018-03-31T08:17:33.033Z,23.17
2018-03-31T08:20:00.443Z,24.10
2018-03-31T08:22:27.201Z,22.53
2018-03-31T08:24:53.325Z,19.90
2018-03-31T08:27:20.564Z,22.63
2018-03-31T08:29:46.541Z,23.30
2018-03-31T08:32:12.537Z,27.60
2018-03-31T08:34:38.516Z,25.27
2018-03-31T08:37:07.393Z,22.30
2018-03-31T08:39:33.390Z,24.70
2018-03-31T08:41:59.360Z,28.10
2018-03-31T08:44:25.649Z,25.27
2018-03-31T08:46:51.621Z,29.20
2018-03-31T08:49:18.328Z,27.37
2018-03-31T08:51:44.541Z,26.77
2018-03-31T08:54:10.519Z,28.13
2018-03-31T08:56:36.485Z,25.53
2018-03-31T08:59:04.112Z,26.73
2018-03-31T09:01:30.088Z,25.77
2018-03-31T09:03:56.110Z,23.30
2018-03-31T09:06:22.078Z,25.20
2018-03-31T09:08:49.721Z,28.23
2018-03-31T09:11:16.440Z,25.67
2018-03-31T09:13:43.265Z,26.80
2018-03-31T09:16:09.356Z,26.40
2018-03-31T09:18:35.621Z,25.83
2018-03-31T09:21:01.593Z,29.07
2018-03-31T09:23:27.591Z,29.40
2018-03-31T09:25:54.353Z,32.57
2018-03-31T09:28:20.414Z,28.10
2018-03-31T09:30:46.509Z,28.60
2018-03-31T09:33:12.593Z,24.90
2018-03-31T09:35:39.793Z,28.97
2018-03-31T09:38:07.027Z,29.47
2018-03-31T09:40:33.013Z,25.87
2018-03-31T09:42:59.109Z,27.53
2018-03-31T09:45:25.104Z,30.43
2018-03-31T09:47:51.151Z,29.83
2018-03-31T09:50:17.257Z,31.40
2018-03-31T09:52:43.322Z,28.70
2018-03-31T09:55:10.937Z,31.97
2018-03-31T09:57:36.913Z,29.93
2018-03-31T10:00:02.916Z,32.07
2018-03-31T10:02:29.885Z,28.40
2018-03-31T10:04:55.888Z,34.03
2018-03-31T10:07:21.861Z,30.20
2018-03-31T10:09:48.597Z,25.57
2018-03-31T10:12:15.300Z,27.17
2018-03-31T10:14:41.301Z,27.83
2018-03-31T10:17:07.269Z,29.47
2018-03-31T10:19:35.648Z,34.30
2018-03-31T10:22:02.353Z,29.30
2018-03-31T10:24:29.962Z,28.50
2018-03-31T10:26:56.673Z,28.80
2018-03-31T10:29:24.590Z,30.60
2018-03-31T10:31:50.557Z,26.23
2018-03-31T10:34:16.541Z,26.60
2018-03-31T10:36:42.553Z,27.53
2018-03-31T10:39:08.536Z,26.10
2018-03-31T10:41:34.543Z,28.13
2018-03-31T10:47:12.388Z,83.83
2018-03-31T10:49:39.113Z,29.97
2018-03-31T10:52:06.397Z,23.93
2018-03-31T10:54:33.128Z,27.80
2018-03-31T10:56:59.857Z,28.67
2018-03-31T10:59:25.843Z,27.60
2018-03-31T11:01:51.891Z,26.70
2018-03-31T11:04:17.873Z,26.27
2018-03-31T11:06:43.857Z,25.20
2018-03-31T11:09:10.601Z,31.83
2018-03-31T11:11:38.889Z,23.13
2018-03-31T11:14:05.600Z,22.20
2018-03-31T11:16:33.214Z,31.00
2018-03-31T11:18:59.202Z,24.73
2018-03-31T11:21:25.206Z,29.77
2018-03-31T11:23:51.168Z,22.07
2018-03-31T11:26:17.164Z,21.63
2018-03-31T11:28:43.891Z,39.47
2018-03-31T11:31:09.893Z,26.43
2018-03-31T11:33:35.882Z,21.27
2018-03-31T11:36:01.964Z,19.77
2018-03-31T11:38:27.970Z,23.10
2018-03-31T11:40:53.951Z,22.07
2018-03-31T11:43:19.932Z,19.13
2018-03-31T11:45:45.904Z,20.50
2018-03-31T11:48:11.896Z,18.90
2018-03-31T11:50:38.604Z,23.90
2018-03-31T11:53:05.873Z,26.47
2018-03-31T11:55:32.592Z,25.50
2018-03-31T11:57:58.593Z,20.60
2018-03-31T12:00:24.583Z,21.40
2018-03-31T12:02:50.584Z,19.10
2018-03-31T12:05:17.325Z,20.00
2018-03-31T12:07:44.065Z,18.30
2018-03-31T12:10:10.788Z,17.93
2018-03-31T12:12:36.788Z,19.03
2018-03-31T12:15:02.782Z,16.07
2018-03-31T12:17:29.517Z,17.60
2018-03-31T12:19:55.497Z,13.30
2018-03-31T12:22:21.589Z,23.03
2018-03-31T12:24:47.593Z,16.63
2018-03-31T12:27:16.585Z,15.93
2018-03-31T12:29:42.544Z,16.20
2018-03-31T12:32:08.516Z,13.90
2018-03-31T12:34:36.332Z,15.20
2018-03-31T12:37:04.085Z,16.93
2018-03-31T12:39:30.110Z,16.40
2018-03-31T12:41:56.156Z,14.67
2018-03-31T12:44:22.190Z,15.33
2018-03-31T12:46:48.201Z,17.40
2018-03-31T12:49:14.284Z,12.40
2018-03-31T12:51:40.341Z,14.40
2018-03-31T12:54:06.388Z,15.43
2018-03-31T12:56:32.457Z,17.83
2018-03-31T12:58:58.518Z,15.03
2018-03-31T13:01:24.493Z,17.23
2018-03-31T13:03:50.489Z,13.27
2018-03-31T13:06:17.209Z,14.10
2018-03-31T13:08:43.404Z,16.03
2018-03-31T13:11:09.396Z,14.47
2018-03-31T13:13:35.395Z,13.67
2018-03-31T13:16:04.405Z,16.20
2018-03-31T13:18:32.282Z,22.17
2018-03-31T13:20:58.269Z,85.90
2018-03-31T13:23:24.242Z,34.57
2018-03-31T13:25:50.241Z,27.77
2018-03-31T13:28:16.941Z,16.00
2018-03-31T13:30:42.929Z,22.17
2018-03-31T13:33:08.901Z,12.40
2018-03-31T13:35:34.921Z,14.10
2018-03-31T13:38:00.926Z,16.83
2018-03-31T13:40:26.945Z,14.17
2018-03-31T13:42:52.919Z,16.83
2018-03-31T13:45:19.654Z,14.70
2018-03-31T13:47:46.370Z,13.50
2018-03-31T13:50:12.369Z,13.87
2018-03-31T13:52:38.337Z,12.63
2018-03-31T13:55:06.697Z,18.47
2018-03-31T13:57:32.701Z,14.40
2018-03-31T14:00:00.129Z,12.37
2018-03-31T14:02:26.322Z,15.70
2018-03-31T14:04:52.301Z,11.77
2018-03-31T14:07:18.297Z,11.83
2018-03-31T14:09:45.554Z,12.03
2018-03-31T14:12:11.592Z,14.40
2018-03-31T14:14:37.637Z,14.73
2018-03-31T14:17:05.652Z,14.23
2018-03-31T14:19:31.662Z,12.53
2018-03-31T14:21:58.439Z,13.30
2018-03-31T14:24:24.456Z,10.40
2018-03-31T14:26:50.510Z,11.90
2018-03-31T14:29:17.554Z,12.80
2018-03-31T14:31:43.614Z,26.23
2018-03-31T14:34:10.336Z,15.40
2018-03-31T14:36:37.936Z,14.33
2018-03-31T14:39:03.977Z,16.03
2018-03-31T14:41:31.292Z,16.10
2018-03-31T14:43:58.117Z,19.33
2018-03-31T14:46:27.902Z,23.00
2018-03-31T14:48:53.942Z,21.80
2018-03-31T14:51:20.013Z,18.83
2018-03-31T14:53:48.043Z,19.07
2018-03-31T14:56:14.126Z,16.80
2018-03-31T14:58:40.140Z,16.10
2018-03-31T15:01:06.335Z,16.10
2018-03-31T15:03:33.386Z,12.60
2018-03-31T15:06:00.205Z,13.80
2018-03-31T15:08:26.256Z,14.07
2018-03-31T15:10:52.993Z,12.40
2018-03-31T15:13:19.770Z,12.93
2018-03-31T15:15:47.951Z,13.23
2018-03-31T15:18:15.414Z,12.27
2018-03-31T15:20:41.461Z,13.20
2018-03-31T15:23:07.502Z,14.93
2018-03-31T15:25:33.516Z,13.77
2018-03-31T15:27:59.581Z,12.57
2018-03-31T15:30:25.585Z,13.23
2018-03-31T15:32:52.666Z,13.47
2018-03-31T15:35:19.039Z,12.63
2018-03-31T15:37:45.681Z,14.07
2018-03-31T15:40:11.707Z,15.10
2018-03-31T15:42:37.669Z,12.23
2018-03-31T15:45:03.666Z,11.27
2018-03-31T15:47:29.685Z,10.63
2018-03-31T15:49:55.671Z,8.97
2018-03-31T15:52:21.641Z,9.77
2018-03-31T15:54:48.373Z,10.17
2018-03-31T15:57:14.360Z,10.60
2018-03-31T15:59:41.629Z,10.00
2018-03-31T16:02:07.596Z,8.20
2018-03-31T16:04:35.865Z,11.50
2018-03-31T16:07:02.628Z,10.03
2018-03-31T16:09:30.181Z,9.40
2018-03-31T16:11:56.160Z,10.47
2018-03-31T16:14:22.161Z,10.53
2018-03-31T16:16:48.883Z,10.63
2018-03-31T16:19:14.877Z,10.40
2018-03-31T16:21:40.865Z,9.23
2018-03-31T16:24:06.857Z,9.53
2018-03-31T16:26:32.829Z,11.37
2018-03-31T16:28:59.558Z,11.70
2018-03-31T16:31:25.528Z,10.43
2018-03-31T16:33:51.535Z,11.73
2018-03-31T16:36:17.529Z,12.47
2018-03-31T16:38:43.532Z,13.07
2018-03-31T16:41:09.501Z,10.93
2018-03-31T16:43:35.473Z,11.97
2018-03-31T16:46:01.462Z,12.90
2018-03-31T16:48:27.445Z,13.03
2018-03-31T16:50:54.185Z,8.03
2018-03-31T16:53:20.181Z,9.70
2018-03-31T16:55:46.938Z,8.67
2018-03-31T16:58:12.913Z,8.37
2018-03-31T17:00:38.953Z,8.43
2018-03-31T17:03:04.917Z,9.13
2018-03-31T17:05:30.907Z,8.83
2018-03-31T17:07:56.885Z,8.00
2018-03-31T17:10:22.947Z,8.80
2018-03-31T17:12:48.921Z,7.80
2018-03-31T17:15:15.668Z,9.77
2018-03-31T17:17:41.671Z,18.10
2018-03-31T17:20:08.416Z,14.13
2018-03-31T17:22:35.124Z,14.40
2018-03-31T17:25:01.145Z,15.00
2018-03-31T17:27:27.131Z,13.40
2018-03-31T17:29:53.103Z,13.27
2018-03-31T17:32:19.089Z,22.83
2018-03-31T17:34:45.057Z,38.40
2018-03-31T17:37:11.069Z,34.30
2018-03-31T17:39:37.046Z,16.80
2018-03-31T17:42:03.133Z,15.37
2018-03-31T17:44:29.856Z,15.73
2018-03-31T17:46:57.836Z,18.40
2018-03-31T17:49:24.835Z,15.20
2018-03-31T17:51:50.842Z,20.23
2018-03-31T17:54:16.818Z,29.27
2018-03-31T17:56:44.830Z,24.30
2018-03-31T17:59:10.804Z,20.07
2018-03-31T18:01:37.796Z,33.20
2018-03-31T18:04:03.782Z,45.53
2018-03-31T18:06:29.776Z,38.33
2018-03-31T18:08:55.749Z,32.33
2018-03-31T18:11:23.625Z,29.47
2018-03-31T18:13:50.347Z,24.80
2018-03-31T18:16:18.883Z,27.37
2018-03-31T18:18:44.876Z,23.67
2018-03-31T18:21:10.844Z,16.80
2018-03-31T18:23:36.836Z,16.60
2018-03-31T18:26:02.826Z,16.73
2018-03-31T18:28:29.556Z,19.03
2018-03-31T18:30:55.538Z,16.77
2018-03-31T18:33:21.554Z,16.33
2018-03-31T18:35:47.526Z,15.50
2018-03-31T18:38:13.546Z,15.07
2018-03-31T18:40:39.513Z,21.93
2018-03-31T18:43:06.576Z,22.20
2018-03-31T18:45:32.553Z,31.83
2018-03-31T18:47:59.290Z,41.90
2018-03-31T18:50:26.270Z,35.97
2018-03-31T18:52:52.265Z,27.17
2018-03-31T18:55:18.977Z,27.47
2018-03-31T18:57:46.486Z,34.23
2018-03-31T19:00:12.457Z,37.07
2018-03-31T19:02:39.533Z,35.90
2018-03-31T19:05:05.504Z,34.20
2018-03-31T19:07:31.530Z,22.70
2018-03-31T19:09:58.277Z,25.60
2018-03-31T19:12:24.985Z,14.10
2018-03-31T19:14:50.985Z,19.40
2018-03-31T19:17:17.697Z,17.80
2018-03-31T19:19:43.693Z,16.50
2018-03-31T19:22:09.668Z,18.60
2018-03-31T19:24:42.584Z,22.47
2018-03-31T19:27:08.553Z,23.90
2018-03-31T19:29:34.540Z,33.30
2018-03-31T19:32:00.514Z,56.33
2018-03-31T19:34:27.289Z,51.00
2018-03-31T19:36:55.936Z,44.80
2018-03-31T19:39:28.955Z,53.67
2018-03-31T19:41:55.665Z,47.60
2018-03-31T19:44:22.510Z,58.07
2018-03-31T19:46:49.220Z,53.93
2018-03-31T19:49:17.105Z,49.97
2018-03-31T19:51:43.837Z,41.67
2018-03-31T19:54:09.840Z,37.77
2018-03-31T19:56:35.829Z,36.27
2018-03-31T19:59:01.863Z,37.37
2018-03-31T20:01:27.868Z,33.03
2018-03-31T20:03:53.968Z,29.07
2018-03-31T20:06:20.692Z,32.67
2018-03-31T20:08:46.663Z,27.93
2018-03-31T20:11:12.677Z,23.40
2018-03-31T20:13:38.657Z,24.90
2018-03-31T20:16:05.936Z,22.20
2018-03-31T20:18:32.647Z,20.10
2018-03-31T20:21:00.346Z,22.93
2018-03-31T20:23:27.106Z,22.90
2018-03-31T20:25:54.663Z,22.73
2018-03-31T20:28:20.633Z,25.80
2018-03-31T20:30:46.624Z,21.03
2018-03-31T20:33:12.589Z,22.63
2018-03-31T20:35:38.577Z,22.07
2018-03-31T20:38:04.573Z,27.00
2018-03-31T20:40:30.564Z,29.67
2018-03-31T20:42:57.311Z,32.90
2018-03-31T20:45:23.285Z,26.63
2018-03-31T20:47:49.256Z,26.40
2018-03-31T20:50:15.992Z,24.90
2018-03-31T20:52:42.716Z,28.70
2018-03-31T20:55:09.533Z,25.80
2018-03-31T20:57:35.513Z,25.40
2018-03-31T21:00:02.217Z,23.00
2018-03-31T21:02:28.224Z,26.40
2018-03-31T21:04:54.189Z,24.07
2018-03-31T21:07:22.668Z,22.47
2018-03-31T21:09:49.374Z,28.97
2018-03-31T21:12:15.368Z,25.33
2018-03-31T21:14:41.342Z,33.00
2018-03-31T21:17:09.141Z,33.27
2018-03-31T21:19:35.104Z,37.87
2018-03-31T21:22:01.092Z,31.10
2018-03-31T21:24:27.109Z,34.20
2018-03-31T21:26:53.161Z,31.87
2018-03-31T21:29:19.157Z,30.33
2018-03-31T21:31:45.157Z,32.00
2018-03-31T21:34:11.949Z,33.90
2018-03-31T21:36:39.440Z,31.00
2018-03-31T21:39:05.409Z,31.20
2018-03-31T21:41:32.716Z,33.00
2018-03-31T21:43:58.683Z,29.97
2018-03-31T21:46:24.645Z,39.10
2018-03-31T21:48:53.208Z,34.00
2018-03-31T21:51:19.917Z,35.00
2018-03-31T21:53:45.917Z,30.93
2018-03-31T21:56:12.624Z,31.37
2018-03-31T21:58:38.621Z,33.10
2018-03-31T22:01:04.594Z,33.17
2018-03-31T22:03:31.334Z,35.53
2018-03-31T22:05:58.049Z,33.30
2018-03-31T22:08:24.045Z,39.23
2018-03-31T22:10:50.058Z,32.20
2018-03-31T22:13:24.033Z,36.43
2018-03-31T22:15:50.828Z,35.00
2018-03-31T22:18:18.245Z,32.07
2018-03-31T22:20:45.114Z,37.60
2018-03-31T22:23:11.220Z,41.23
2018-03-31T22:25:37.245Z,40.60
2018-03-31T22:28:03.280Z,45.00
2018-03-31T22:30:29.285Z,48.63
2018-03-31T22:32:56.171Z,44.00
2018-03-31T22:35:22.180Z,43.80
2018-03-31T22:37:48.223Z,53.13
2018-03-31T22:40:15.737Z,54.50
2018-03-31T22:42:41.778Z,51.57
2018-03-31T22:45:09.769Z,51.53
2018-03-31T22:47:35.885Z,53.50
2018-03-31T22:50:02.021Z,50.63
2018-03-31T22:52:28.125Z,56.90
2018-03-31T22:54:54.284Z,59.80
2018-03-31T22:57:20.372Z,57.00
2018-03-31T22:59:46.410Z,53.23
2018-03-31T23:02:12.528Z,58.63
2018-03-31T23:04:38.668Z,64.30
2018-03-31T23:07:04.774Z,58.10
2018-03-31T23:09:30.917Z,62.57
2018-03-31T23:11:57.026Z,61.10
2018-03-31T23:14:24.404Z,52.17
2018-03-31T23:16:51.224Z,59.87
2018-03-31T23:19:20.003Z,53.70
2018-03-31T23:21:46.055Z,55.00
2018-03-31T23:24:12.072Z,53.77
2018-03-31T23:26:38.228Z,61.07
2018-03-31T23:29:04.303Z,58.37
2018-03-31T23:31:30.403Z,56.15
2018-03-31T23:33:57.173Z,56.20
2018-03-31T23:36:24.009Z,58.80
2018-03-31T23:38:50.045Z,54.67
2018-03-31T23:41:18.042Z,61.63
2018-03-31T23:43:44.132Z,60.10
2018-03-31T23:46:10.277Z,57.70
2018-03-31T23:48:36.589Z,60.13
2018-03-31T23:51:02.742Z,55.30
2018-03-31T23:53:28.833Z,52.53
2018-03-31T23:55:57.918Z,47.60
2018-03-31T23:58:24.777Z,44.77
